sensor_id;sensor_type;location;lat;lon;timestamp;P1;durP1;ratioP1;P2;durP2;ratioP2
23594;SDS011;11975;47.674;9.472;2023-06-10T00:02:08;20.47;;;19.37;;
23594;SDS011;11975;47.674;9.472;2023-06-10T00:04:35;20.10;;;19.00;;
23594;SDS011;11975;47.674;9.472;2023-06-10T00:07:05;19.90;;;18.80;;
23594;SDS011;11975;47.674;9.472;2023-06-10T00:09:34;20.95;;;19.75;;
23594;SDS011;11975;47.674;9.472;2023-06-10T00:12:05;20.70;;;19.55;;
23594;SDS011;11975;47.674;9.472;2023-06-10T00:14:32;20.27;;;19.17;;
23594;SDS011;11975;47.674;9.472;2023-06-10T00:17:02;20.60;;;19.40;;
23594;SDS011;11975;47.674;9.472;2023-06-10T00:19:28;19.75;;;18.65;;
23594;SDS011;11975;47.674;9.472;2023-06-10T00:21:56;21.00;;;19.80;;
23594;SDS011;11975;47.674;9.472;2023-06-10T00:24:22;20.48;;;19.27;;
23594;SDS011;11975;47.674;9.472;2023-06-10T00:26:48;20.35;;;19.25;;
23594;SDS011;11975;47.674;9.472;2023-06-10T00:29:14;20.77;;;19.58;;
23594;SDS011;11975;47.674;9.472;2023-06-10T00:31:40;20.85;;;19.65;;
23594;SDS011;11975;47.674;9.472;2023-06-10T00:34:06;20.52;;;19.40;;
23594;SDS011;11975;47.674;9.472;2023-06-10T00:36:33;20.25;;;19.13;;
23594;SDS011;11975;47.674;9.472;2023-06-10T00:38:59;19.85;;;18.75;;
23594;SDS011;11975;47.674;9.472;2023-06-10T00:41:25;20.08;;;18.98;;
23594;SDS011;11975;47.674;9.472;2023-06-10T00:43:53;20.30;;;19.20;;
23594;SDS011;11975;47.674;9.472;2023-06-10T00:46:20;20.98;;;19.77;;
23594;SDS011;11975;47.674;9.472;2023-06-10T00:51:12;21.43;;;20.13;;
23594;SDS011;11975;47.674;9.472;2023-06-10T00:53:41;20.38;;;19.27;;
23594;SDS011;11975;47.674;9.472;2023-06-10T00:56:07;20.85;;;19.65;;
23594;SDS011;11975;47.674;9.472;2023-06-10T00:58:33;20.90;;;19.70;;
23594;SDS011;11975;47.674;9.472;2023-06-10T01:00:59;21.10;;;19.90;;
23594;SDS011;11975;47.674;9.472;2023-06-10T01:03:26;20.58;;;19.48;;
23594;SDS011;11975;47.674;9.472;2023-06-10T01:05:53;21.25;;;20.05;;
23594;SDS011;11975;47.674;9.472;2023-06-10T01:09:04;20.35;;;19.20;;
23594;SDS011;11975;47.674;9.472;2023-06-10T01:11:24;21.63;;;20.42;;
23594;SDS011;11975;47.674;9.472;2023-06-10T01:13:52;20.95;;;19.75;;
23594;SDS011;11975;47.674;9.472;2023-06-10T01:16:19;21.50;;;20.30;;
23594;SDS011;11975;47.674;9.472;2023-06-10T01:18:45;21.40;;;20.13;;
23594;SDS011;11975;47.674;9.472;2023-06-10T01:21:20;22.23;;;20.92;;
23594;SDS011;11975;47.674;9.472;2023-06-10T01:23:51;22.15;;;20.85;;
23594;SDS011;11975;47.674;9.472;2023-06-10T01:26:18;23.02;;;21.52;;
23594;SDS011;11975;47.674;9.472;2023-06-10T01:28:49;22.48;;;21.02;;
23594;SDS011;11975;47.674;9.472;2023-06-10T01:31:33;22.02;;;20.73;;
23594;SDS011;11975;47.674;9.472;2023-06-10T01:34:07;22.23;;;20.92;;
23594;SDS011;11975;47.674;9.472;2023-06-10T01:36:35;21.30;;;20.10;;
23594;SDS011;11975;47.674;9.472;2023-06-10T01:39:02;21.35;;;20.15;;
23594;SDS011;11975;47.674;9.472;2023-06-10T01:41:30;21.65;;;20.45;;
23594;SDS011;11975;47.674;9.472;2023-06-10T01:43:56;21.45;;;20.25;;
23594;SDS011;11975;47.674;9.472;2023-06-10T01:46:22;22.10;;;20.80;;
23594;SDS011;11975;47.674;9.472;2023-06-10T01:48:48;20.85;;;19.67;;
23594;SDS011;11975;47.674;9.472;2023-06-10T01:51:14;21.60;;;20.40;;
23594;SDS011;11975;47.674;9.472;2023-06-10T01:53:42;21.95;;;20.75;;
23594;SDS011;11975;47.674;9.472;2023-06-10T01:56:08;22.20;;;20.90;;
23594;SDS011;11975;47.674;9.472;2023-06-10T01:58:35;21.75;;;20.55;;
23594;SDS011;11975;47.674;9.472;2023-06-10T02:01:01;21.05;;;19.85;;
23594;SDS011;11975;47.674;9.472;2023-06-10T02:03:27;22.33;;;20.83;;
23594;SDS011;11975;47.674;9.472;2023-06-10T02:05:53;20.60;;;19.48;;
23594;SDS011;11975;47.674;9.472;2023-06-10T02:08:19;21.92;;;20.63;;
23594;SDS011;11975;47.674;9.472;2023-06-10T02:10:45;21.10;;;19.90;;
23594;SDS011;11975;47.674;9.472;2023-06-10T02:13:10;20.90;;;19.70;;
23594;SDS011;11975;47.674;9.472;2023-06-10T02:15:36;21.58;;;20.38;;
23594;SDS011;11975;47.674;9.472;2023-06-10T02:18:02;21.50;;;20.30;;
23594;SDS011;11975;47.674;9.472;2023-06-10T02:20:29;22.50;;;20.98;;
23594;SDS011;11975;47.674;9.472;2023-06-10T02:22:55;21.95;;;20.73;;
23594;SDS011;11975;47.674;9.472;2023-06-10T02:25:21;22.15;;;20.95;;
23594;SDS011;11975;47.674;9.472;2023-06-10T02:27:47;22.30;;;21.00;;
23594;SDS011;11975;47.674;9.472;2023-06-10T02:30:13;21.50;;;20.30;;
23594;SDS011;11975;47.674;9.472;2023-06-10T02:32:39;21.93;;;20.73;;
23594;SDS011;11975;47.674;9.472;2023-06-10T02:35:05;21.92;;;20.73;;
23594;SDS011;11975;47.674;9.472;2023-06-10T02:37:31;20.98;;;19.77;;
23594;SDS011;11975;47.674;9.472;2023-06-10T02:39:57;21.10;;;19.90;;
23594;SDS011;11975;47.674;9.472;2023-06-10T02:42:23;21.17;;;19.98;;
23594;SDS011;11975;47.674;9.472;2023-06-10T02:44:49;21.05;;;19.85;;
23594;SDS011;11975;47.674;9.472;2023-06-10T02:47:15;21.58;;;20.38;;
23594;SDS011;11975;47.674;9.472;2023-06-10T02:49:41;22.70;;;21.30;;
23594;SDS011;11975;47.674;9.472;2023-06-10T02:52:07;21.73;;;20.52;;
23594;SDS011;11975;47.674;9.472;2023-06-10T02:54:33;22.23;;;20.92;;
23594;SDS011;11975;47.674;9.472;2023-06-10T02:56:59;22.00;;;20.80;;
23594;SDS011;11975;47.674;9.472;2023-06-10T02:59:25;22.50;;;21.20;;
23594;SDS011;11975;47.674;9.472;2023-06-10T03:01:52;22.58;;;21.30;;
23594;SDS011;11975;47.674;9.472;2023-06-10T03:04:19;22.75;;;21.45;;
23594;SDS011;11975;47.674;9.472;2023-06-10T03:06:46;23.35;;;21.88;;
23594;SDS011;11975;47.674;9.472;2023-06-10T03:09:12;22.60;;;21.30;;
23594;SDS011;11975;47.674;9.472;2023-06-10T03:11:39;22.77;;;21.48;;
23594;SDS011;11975;47.674;9.472;2023-06-10T03:14:05;22.13;;;20.88;;
23594;SDS011;11975;47.674;9.472;2023-06-10T03:16:31;21.33;;;20.13;;
23594;SDS011;11975;47.674;9.472;2023-06-10T03:18:57;21.20;;;20.00;;
23594;SDS011;11975;47.674;9.472;2023-06-10T03:21:23;22.83;;;21.52;;
23594;SDS011;11975;47.674;9.472;2023-06-10T03:23:49;22.00;;;20.80;;
23594;SDS011;11975;47.674;9.472;2023-06-10T03:26:15;21.92;;;20.63;;
23594;SDS011;11975;47.674;9.472;2023-06-10T03:28:41;23.05;;;21.75;;
23594;SDS011;11975;47.674;9.472;2023-06-10T03:31:07;23.73;;;22.05;;
23594;SDS011;11975;47.674;9.472;2023-06-10T03:33:33;22.83;;;21.52;;
23594;SDS011;11975;47.674;9.472;2023-06-10T03:35:59;23.58;;;22.13;;
23594;SDS011;11975;47.674;9.472;2023-06-10T03:38:25;23.98;;;22.55;;
23594;SDS011;11975;47.674;9.472;2023-06-10T03:40:51;23.15;;;21.85;;
23594;SDS011;11975;47.674;9.472;2023-06-10T03:43:17;23.60;;;22.27;;
23594;SDS011;11975;47.674;9.472;2023-06-10T03:45:44;23.85;;;22.50;;
23594;SDS011;11975;47.674;9.472;2023-06-10T03:48:10;24.35;;;22.95;;
23594;SDS011;11975;47.674;9.472;2023-06-10T03:50:36;24.33;;;22.92;;
23594;SDS011;11975;47.674;9.472;2023-06-10T03:53:02;23.35;;;22.00;;
23594;SDS011;11975;47.674;9.472;2023-06-10T03:55:28;24.00;;;22.60;;
23594;SDS011;11975;47.674;9.472;2023-06-10T03:57:54;23.30;;;21.98;;
23594;SDS011;11975;47.674;9.472;2023-06-10T04:00:20;24.58;;;23.17;;
23594;SDS011;11975;47.674;9.472;2023-06-10T04:02:47;24.02;;;22.63;;
23594;SDS011;11975;47.674;9.472;2023-06-10T04:05:15;24.33;;;22.92;;
23594;SDS011;11975;47.674;9.472;2023-06-10T04:07:42;24.67;;;23.27;;
23594;SDS011;11975;47.674;9.472;2023-06-10T04:10:09;24.20;;;22.83;;
23594;SDS011;11975;47.674;9.472;2023-06-10T04:12:36;25.20;;;23.80;;
23594;SDS011;11975;47.674;9.472;2023-06-10T04:15:03;24.63;;;23.23;;
23594;SDS011;11975;47.674;9.472;2023-06-10T04:17:31;24.83;;;23.42;;
23594;SDS011;11975;47.674;9.472;2023-06-10T04:22:26;23.35;;;22.05;;
23594;SDS011;11975;47.674;9.472;2023-06-10T04:24:52;24.97;;;23.57;;
23594;SDS011;11975;47.674;9.472;2023-06-10T04:27:18;25.02;;;23.63;;
23594;SDS011;11975;47.674;9.472;2023-06-10T04:29:44;26.60;;;25.10;;
23594;SDS011;11975;47.674;9.472;2023-06-10T04:32:10;25.00;;;23.60;;
23594;SDS011;11975;47.674;9.472;2023-06-10T04:34:36;25.30;;;23.88;;
23594;SDS011;11975;47.674;9.472;2023-06-10T04:37:05;24.75;;;23.30;;
23594;SDS011;11975;47.674;9.472;2023-06-10T04:39:32;24.63;;;23.23;;
23594;SDS011;11975;47.674;9.472;2023-06-10T04:41:58;25.00;;;23.60;;
23594;SDS011;11975;47.674;9.472;2023-06-10T04:44:25;23.45;;;22.15;;
23594;SDS011;11975;47.674;9.472;2023-06-10T04:46:50;23.20;;;21.90;;
23594;SDS011;11975;47.674;9.472;2023-06-10T04:49:17;23.20;;;21.90;;
23594;SDS011;11975;47.674;9.472;2023-06-10T04:51:43;22.97;;;21.67;;
23594;SDS011;11975;47.674;9.472;2023-06-10T04:54:09;23.20;;;21.70;;
23594;SDS011;11975;47.674;9.472;2023-06-10T04:56:35;22.75;;;21.45;;
23594;SDS011;11975;47.674;9.472;2023-06-10T04:59:02;21.15;;;19.95;;
23594;SDS011;11975;47.674;9.472;2023-06-10T05:01:27;21.23;;;20.02;;
23594;SDS011;11975;47.674;9.472;2023-06-10T05:03:53;21.20;;;20.00;;
23594;SDS011;11975;47.674;9.472;2023-06-10T05:06:19;21.58;;;20.27;;
23594;SDS011;11975;47.674;9.472;2023-06-10T05:08:45;21.08;;;19.88;;
23594;SDS011;11975;47.674;9.472;2023-06-10T05:11:11;20.80;;;19.60;;
23594;SDS011;11975;47.674;9.472;2023-06-10T05:13:37;20.98;;;19.77;;
23594;SDS011;11975;47.674;9.472;2023-06-10T05:16:05;20.60;;;19.40;;
23594;SDS011;11975;47.674;9.472;2023-06-10T05:18:32;20.23;;;19.13;;
23594;SDS011;11975;47.674;9.472;2023-06-10T05:20:58;19.70;;;18.60;;
23594;SDS011;11975;47.674;9.472;2023-06-10T05:23:24;20.27;;;19.08;;
23594;SDS011;11975;47.674;9.472;2023-06-10T05:25:50;20.73;;;19.52;;
23594;SDS011;11975;47.674;9.472;2023-06-10T05:28:16;20.88;;;19.63;;
23594;SDS011;11975;47.674;9.472;2023-06-10T05:30:43;20.35;;;19.23;;
23594;SDS011;11975;47.674;9.472;2023-06-10T05:33:09;20.70;;;19.50;;
23594;SDS011;11975;47.674;9.472;2023-06-10T05:35:35;21.30;;;20.10;;
23594;SDS011;11975;47.674;9.472;2023-06-10T05:38:02;19.48;;;18.38;;
23594;SDS011;11975;47.674;9.472;2023-06-10T05:40:28;19.35;;;18.25;;
23594;SDS011;11975;47.674;9.472;2023-06-10T05:42:54;20.55;;;19.17;;
23594;SDS011;11975;47.674;9.472;2023-06-10T05:45:20;19.63;;;18.52;;
23594;SDS011;11975;47.674;9.472;2023-06-10T05:47:46;20.42;;;19.13;;
23594;SDS011;11975;47.674;9.472;2023-06-10T05:50:12;21.50;;;20.20;;
23594;SDS011;11975;47.674;9.472;2023-06-10T05:52:38;21.00;;;19.80;;
23594;SDS011;11975;47.674;9.472;2023-06-10T05:55:06;22.15;;;20.75;;
23594;SDS011;11975;47.674;9.472;2023-06-10T05:57:32;20.00;;;18.90;;
23594;SDS011;11975;47.674;9.472;2023-06-10T05:59:58;20.60;;;19.40;;
23594;SDS011;11975;47.674;9.472;2023-06-10T06:02:24;19.92;;;18.83;;
23594;SDS011;11975;47.674;9.472;2023-06-10T06:04:51;21.00;;;19.80;;
23594;SDS011;11975;47.674;9.472;2023-06-10T06:07:17;21.63;;;20.05;;
23594;SDS011;11975;47.674;9.472;2023-06-10T06:09:46;19.75;;;18.65;;
23594;SDS011;11975;47.674;9.472;2023-06-10T06:12:12;20.73;;;19.52;;
23594;SDS011;11975;47.674;9.472;2023-06-10T06:14:38;20.88;;;19.67;;
23594;SDS011;11975;47.674;9.472;2023-06-10T06:17:05;20.08;;;18.90;;
23594;SDS011;11975;47.674;9.472;2023-06-10T06:19:32;20.58;;;19.38;;
23594;SDS011;11975;47.674;9.472;2023-06-10T06:21:58;20.90;;;19.70;;
23594;SDS011;11975;47.674;9.472;2023-06-10T06:24:24;20.17;;;19.08;;
23594;SDS011;11975;47.674;9.472;2023-06-10T06:26:49;20.20;;;19.02;;
23594;SDS011;11975;47.674;9.472;2023-06-10T06:29:15;20.45;;;19.25;;
23594;SDS011;11975;47.674;9.472;2023-06-10T06:31:41;20.08;;;18.98;;
23594;SDS011;11975;47.674;9.472;2023-06-10T06:34:07;20.67;;;19.48;;
23594;SDS011;11975;47.674;9.472;2023-06-10T06:36:33;20.13;;;18.92;;
23594;SDS011;11975;47.674;9.472;2023-06-10T06:38:59;20.00;;;18.80;;
23594;SDS011;11975;47.674;9.472;2023-06-10T06:41:28;19.27;;;18.17;;
23594;SDS011;11975;47.674;9.472;2023-06-10T06:43:54;20.08;;;18.98;;
23594;SDS011;11975;47.674;9.472;2023-06-10T06:46:20;18.90;;;17.83;;
23594;SDS011;11975;47.674;9.472;2023-06-10T06:48:48;19.48;;;18.38;;
23594;SDS011;11975;47.674;9.472;2023-06-10T06:51:14;18.93;;;17.83;;
23594;SDS011;11975;47.674;9.472;2023-06-10T06:53:40;20.00;;;18.90;;
23594;SDS011;11975;47.674;9.472;2023-06-10T06:56:10;19.55;;;18.38;;
23594;SDS011;11975;47.674;9.472;2023-06-10T06:58:36;19.85;;;18.65;;
23594;SDS011;11975;47.674;9.472;2023-06-10T07:01:02;19.33;;;18.23;;
23594;SDS011;11975;47.674;9.472;2023-06-10T07:03:28;19.05;;;17.95;;
23594;SDS011;11975;47.674;9.472;2023-06-10T07:05:54;19.60;;;18.42;;
23594;SDS011;11975;47.674;9.472;2023-06-10T07:08:20;20.07;;;18.87;;
23594;SDS011;11975;47.674;9.472;2023-06-10T07:10:46;18.80;;;17.73;;
23594;SDS011;11975;47.674;9.472;2023-06-10T07:13:14;19.88;;;18.67;;
23594;SDS011;11975;47.674;9.472;2023-06-10T07:15:40;19.37;;;18.27;;
23594;SDS011;11975;47.674;9.472;2023-06-10T07:18:06;18.20;;;17.20;;
23594;SDS011;11975;47.674;9.472;2023-06-10T07:20:32;19.00;;;17.90;;
23594;SDS011;11975;47.674;9.472;2023-06-10T07:25:25;19.20;;;18.10;;
23594;SDS011;11975;47.674;9.472;2023-06-10T07:27:51;18.87;;;17.77;;
23594;SDS011;11975;47.674;9.472;2023-06-10T07:30:17;19.17;;;17.87;;
23594;SDS011;11975;47.674;9.472;2023-06-10T07:32:43;18.67;;;17.67;;
23594;SDS011;11975;47.674;9.472;2023-06-10T07:35:09;20.23;;;19.10;;
23594;SDS011;11975;47.674;9.472;2023-06-10T07:37:38;20.52;;;19.33;;
23594;SDS011;11975;47.674;9.472;2023-06-10T07:40:04;19.40;;;18.20;;
23594;SDS011;11975;47.674;9.472;2023-06-10T07:42:34;20.00;;;18.90;;
23594;SDS011;11975;47.674;9.472;2023-06-10T07:45:02;19.25;;;18.15;;
23594;SDS011;11975;47.674;9.472;2023-06-10T07:47:29;19.10;;;18.00;;
23594;SDS011;11975;47.674;9.472;2023-06-10T07:49:55;18.60;;;17.58;;
23594;SDS011;11975;47.674;9.472;2023-06-10T07:52:21;18.05;;;17.05;;
23594;SDS011;11975;47.674;9.472;2023-06-10T07:54:47;17.73;;;16.73;;
23594;SDS011;11975;47.674;9.472;2023-06-10T07:57:13;16.30;;;15.40;;
23594;SDS011;11975;47.674;9.472;2023-06-10T07:59:39;18.35;;;17.35;;
23594;SDS011;11975;47.674;9.472;2023-06-10T08:02:05;18.67;;;17.57;;
23594;SDS011;11975;47.674;9.472;2023-06-10T08:04:31;18.30;;;17.30;;
23594;SDS011;11975;47.674;9.472;2023-06-10T08:06:57;17.85;;;16.85;;
23594;SDS011;11975;47.674;9.472;2023-06-10T08:09:23;19.60;;;18.40;;
23594;SDS011;11975;47.674;9.472;2023-06-10T08:11:49;18.33;;;17.33;;
23594;SDS011;11975;47.674;9.472;2023-06-10T08:14:15;18.42;;;17.42;;
23594;SDS011;11975;47.674;9.472;2023-06-10T08:16:42;18.77;;;17.67;;
23594;SDS011;11975;47.674;9.472;2023-06-10T08:19:08;17.92;;;16.92;;
23594;SDS011;11975;47.674;9.472;2023-06-10T08:21:35;19.83;;;18.23;;
23594;SDS011;11975;47.674;9.472;2023-06-10T08:24:03;18.33;;;17.33;;
23594;SDS011;11975;47.674;9.472;2023-06-10T08:26:29;17.13;;;16.13;;
23594;SDS011;11975;47.674;9.472;2023-06-10T08:28:55;18.77;;;17.65;;
23594;SDS011;11975;47.674;9.472;2023-06-10T08:31:22;18.52;;;17.52;;
23594;SDS011;11975;47.674;9.472;2023-06-10T08:33:48;18.00;;;16.88;;
23594;SDS011;11975;47.674;9.472;2023-06-10T08:36:14;19.33;;;17.67;;
23594;SDS011;11975;47.674;9.472;2023-06-10T08:38:40;18.08;;;17.08;;
23594;SDS011;11975;47.674;9.472;2023-06-10T08:41:06;17.75;;;16.75;;
23594;SDS011;11975;47.674;9.472;2023-06-10T08:43:37;17.73;;;16.73;;
23594;SDS011;11975;47.674;9.472;2023-06-10T08:46:06;17.48;;;16.48;;
23594;SDS011;11975;47.674;9.472;2023-06-10T08:48:34;17.33;;;16.33;;
23594;SDS011;11975;47.674;9.472;2023-06-10T08:51:01;17.77;;;16.77;;
23594;SDS011;11975;47.674;9.472;2023-06-10T08:53:29;18.55;;;17.45;;
23594;SDS011;11975;47.674;9.472;2023-06-10T08:55:56;16.92;;;15.98;;
23594;SDS011;11975;47.674;9.472;2023-06-10T08:58:24;17.58;;;16.58;;
23594;SDS011;11975;47.674;9.472;2023-06-10T09:00:50;18.42;;;17.30;;
23594;SDS011;11975;47.674;9.472;2023-06-10T09:03:16;17.98;;;16.98;;
23594;SDS011;11975;47.674;9.472;2023-06-10T09:05:43;16.60;;;15.70;;
23594;SDS011;11975;47.674;9.472;2023-06-10T09:08:09;17.95;;;16.85;;
23594;SDS011;11975;47.674;9.472;2023-06-10T09:10:35;17.23;;;16.23;;
23594;SDS011;11975;47.674;9.472;2023-06-10T09:13:01;18.33;;;17.33;;
23594;SDS011;11975;47.674;9.472;2023-06-10T09:15:27;17.33;;;16.33;;
23594;SDS011;11975;47.674;9.472;2023-06-10T09:17:53;16.92;;;16.02;;
23594;SDS011;11975;47.674;9.472;2023-06-10T09:20:19;16.55;;;15.55;;
23594;SDS011;11975;47.674;9.472;2023-06-10T09:22:45;17.73;;;16.73;;
23594;SDS011;11975;47.674;9.472;2023-06-10T09:25:12;17.95;;;16.95;;
23594;SDS011;11975;47.674;9.472;2023-06-10T09:30:31;17.20;;;16.15;;
23594;SDS011;11975;47.674;9.472;2023-06-10T09:32:59;17.10;;;16.10;;
23594;SDS011;11975;47.674;9.472;2023-06-10T09:35:30;18.02;;;17.02;;
23594;SDS011;11975;47.674;9.472;2023-06-10T09:37:57;16.83;;;15.82;;
23594;SDS011;11975;47.674;9.472;2023-06-10T09:40:24;17.02;;;16.02;;
23594;SDS011;11975;47.674;9.472;2023-06-10T09:42:53;17.25;;;16.30;;
23594;SDS011;11975;47.674;9.472;2023-06-10T09:45:20;16.92;;;15.93;;
23594;SDS011;11975;47.674;9.472;2023-06-10T09:47:47;18.17;;;17.08;;
23594;SDS011;11975;47.674;9.472;2023-06-10T09:50:13;17.80;;;16.80;;
23594;SDS011;11975;47.674;9.472;2023-06-10T09:52:39;19.45;;;18.35;;
23594;SDS011;11975;47.674;9.472;2023-06-10T09:55:07;18.42;;;17.42;;
23594;SDS011;11975;47.674;9.472;2023-06-10T09:57:36;19.00;;;17.90;;
23594;SDS011;11975;47.674;9.472;2023-06-10T10:00:06;18.33;;;17.10;;
23594;SDS011;11975;47.674;9.472;2023-06-10T10:02:43;19.08;;;17.98;;
23594;SDS011;11975;47.674;9.472;2023-06-10T10:05:14;18.10;;;17.10;;
23594;SDS011;11975;47.674;9.472;2023-06-10T10:07:44;17.48;;;16.48;;
23594;SDS011;11975;47.674;9.472;2023-06-10T10:10:10;19.25;;;18.05;;
23594;SDS011;11975;47.674;9.472;2023-06-10T10:12:38;18.35;;;17.35;;
23594;SDS011;11975;47.674;9.472;2023-06-10T10:17:34;20.17;;;19.08;;
23594;SDS011;11975;47.674;9.472;2023-06-10T10:20:03;19.35;;;18.25;;
23594;SDS011;11975;47.674;9.472;2023-06-10T10:22:33;19.13;;;17.90;;
23594;SDS011;11975;47.674;9.472;2023-06-10T10:25:05;18.65;;;17.65;;
23594;SDS011;11975;47.674;9.472;2023-06-10T10:27:35;19.83;;;18.50;;
23594;SDS011;11975;47.674;9.472;2023-06-10T10:30:03;18.00;;;17.00;;
23594;SDS011;11975;47.674;9.472;2023-06-10T10:32:43;19.10;;;18.00;;
23594;SDS011;11975;47.674;9.472;2023-06-10T10:35:17;18.88;;;17.80;;
23594;SDS011;11975;47.674;9.472;2023-06-10T10:37:47;19.13;;;18.02;;
23594;SDS011;11975;47.674;9.472;2023-06-10T10:40:13;19.48;;;18.38;;
23594;SDS011;11975;47.674;9.472;2023-06-10T10:42:39;17.60;;;16.60;;
23594;SDS011;11975;47.674;9.472;2023-06-10T10:49:59;20.23;;;19.10;;
23594;SDS011;11975;47.674;9.472;2023-06-10T10:52:26;19.50;;;18.17;;
23594;SDS011;11975;47.674;9.472;2023-06-10T10:54:53;21.35;;;20.08;;
23594;SDS011;11975;47.674;9.472;2023-06-10T10:57:21;20.25;;;19.10;;
23594;SDS011;11975;47.674;9.472;2023-06-10T11:02:17;19.63;;;18.53;;
23594;SDS011;11975;47.674;9.472;2023-06-10T11:04:46;19.27;;;18.17;;
23594;SDS011;11975;47.674;9.472;2023-06-10T11:07:13;18.33;;;17.33;;
23594;SDS011;11975;47.674;9.472;2023-06-10T11:15:12;20.93;;;19.73;;
23594;SDS011;11975;47.674;9.472;2023-06-10T11:26:10;20.98;;;19.77;;
23594;SDS011;11975;47.674;9.472;2023-06-10T11:29:06;20.45;;;19.15;;
23594;SDS011;11975;47.674;9.472;2023-06-10T11:31:40;20.33;;;19.10;;
23594;SDS011;11975;47.674;9.472;2023-06-10T11:34:10;19.95;;;18.85;;
23594;SDS011;11975;47.674;9.472;2023-06-10T11:36:37;20.30;;;19.20;;
23594;SDS011;11975;47.674;9.472;2023-06-10T11:39:06;18.95;;;17.92;;
23594;SDS011;11975;47.674;9.472;2023-06-10T11:41:32;20.95;;;19.75;;
23594;SDS011;11975;47.674;9.472;2023-06-10T11:44:01;19.88;;;18.77;;
23594;SDS011;11975;47.674;9.472;2023-06-10T11:46:28;17.98;;;16.98;;
23594;SDS011;11975;47.674;9.472;2023-06-10T11:48:55;20.53;;;19.37;;
23594;SDS011;11975;47.674;9.472;2023-06-10T11:51:24;19.90;;;18.73;;
23594;SDS011;11975;47.674;9.472;2023-06-10T11:53:51;20.05;;;18.95;;
23594;SDS011;11975;47.674;9.472;2023-06-10T11:56:21;19.17;;;18.08;;
23594;SDS011;11975;47.674;9.472;2023-06-10T11:58:51;19.63;;;18.45;;
23594;SDS011;11975;47.674;9.472;2023-06-10T12:01:24;18.90;;;17.85;;
23594;SDS011;11975;47.674;9.472;2023-06-10T12:03:58;19.65;;;18.55;;
23594;SDS011;11975;47.674;9.472;2023-06-10T12:06:37;19.88;;;18.77;;
23594;SDS011;11975;47.674;9.472;2023-06-10T12:09:12;20.10;;;19.00;;
23594;SDS011;11975;47.674;9.472;2023-06-10T12:11:39;19.67;;;18.58;;
23594;SDS011;11975;47.674;9.472;2023-06-10T12:14:05;18.33;;;17.25;;
23594;SDS011;11975;47.674;9.472;2023-06-10T12:16:31;19.00;;;17.90;;
23594;SDS011;11975;47.674;9.472;2023-06-10T12:19:03;18.87;;;17.80;;
23594;SDS011;11975;47.674;9.472;2023-06-10T12:21:31;18.50;;;17.50;;
23594;SDS011;11975;47.674;9.472;2023-06-10T12:24:04;18.55;;;17.45;;
23594;SDS011;11975;47.674;9.472;2023-06-10T12:29:20;18.05;;;17.05;;
23594;SDS011;11975;47.674;9.472;2023-06-10T12:31:56;18.70;;;17.60;;
23594;SDS011;11975;47.674;9.472;2023-06-10T12:34:34;18.83;;;17.73;;
23594;SDS011;11975;47.674;9.472;2023-06-10T12:37:05;17.83;;;16.83;;
23594;SDS011;11975;47.674;9.472;2023-06-10T12:39:32;17.33;;;16.38;;
23594;SDS011;11975;47.674;9.472;2023-06-10T12:41:59;18.13;;;17.13;;
23594;SDS011;11975;47.674;9.472;2023-06-10T12:44:33;18.80;;;17.73;;
23594;SDS011;11975;47.674;9.472;2023-06-10T12:47:00;17.80;;;16.80;;
23594;SDS011;11975;47.674;9.472;2023-06-10T12:49:27;18.90;;;17.90;;
23594;SDS011;11975;47.674;9.472;2023-06-10T12:51:53;18.83;;;17.73;;
23594;SDS011;11975;47.674;9.472;2023-06-10T12:54:19;20.05;;;18.92;;
23594;SDS011;11975;47.674;9.472;2023-06-10T12:56:45;18.83;;;17.63;;
23594;SDS011;11975;47.674;9.472;2023-06-10T12:59:11;20.50;;;19.37;;
23594;SDS011;11975;47.674;9.472;2023-06-10T13:01:37;20.40;;;19.27;;
23594;SDS011;11975;47.674;9.472;2023-06-10T13:04:04;20.08;;;18.98;;
23594;SDS011;11975;47.674;9.472;2023-06-10T13:06:32;21.00;;;19.80;;
23594;SDS011;11975;47.674;9.472;2023-06-10T13:09:02;19.80;;;18.70;;
23594;SDS011;11975;47.674;9.472;2023-06-10T13:11:29;21.20;;;19.88;;
23594;SDS011;11975;47.674;9.472;2023-06-10T13:13:55;19.45;;;18.35;;
23594;SDS011;11975;47.674;9.472;2023-06-10T13:16:21;19.73;;;18.63;;
23594;SDS011;11975;47.674;9.472;2023-06-10T13:18:47;19.70;;;18.60;;
23594;SDS011;11975;47.674;9.472;2023-06-10T13:21:13;21.02;;;19.83;;
23594;SDS011;11975;47.674;9.472;2023-06-10T13:23:40;19.70;;;18.60;;
23594;SDS011;11975;47.674;9.472;2023-06-10T13:26:10;19.65;;;18.55;;
23594;SDS011;11975;47.674;9.472;2023-06-10T13:28:36;18.83;;;17.80;;
23594;SDS011;11975;47.674;9.472;2023-06-10T13:31:01;19.23;;;18.13;;
23594;SDS011;11975;47.674;9.472;2023-06-10T13:33:28;17.98;;;16.98;;
23594;SDS011;11975;47.674;9.472;2023-06-10T13:35:54;18.63;;;17.53;;
23594;SDS011;11975;47.674;9.472;2023-06-10T13:38:20;18.77;;;17.77;;
23594;SDS011;11975;47.674;9.472;2023-06-10T13:40:46;18.67;;;17.47;;
23594;SDS011;11975;47.674;9.472;2023-06-10T13:43:12;18.80;;;17.75;;
23594;SDS011;11975;47.674;9.472;2023-06-10T13:45:39;19.08;;;17.98;;
23594;SDS011;11975;47.674;9.472;2023-06-10T13:48:05;19.08;;;18.02;;
23594;SDS011;11975;47.674;9.472;2023-06-10T13:50:31;18.05;;;17.05;;
23594;SDS011;11975;47.674;9.472;2023-06-10T13:52:57;18.10;;;17.10;;
23594;SDS011;11975;47.674;9.472;2023-06-10T13:55:23;17.03;;;16.07;;
23594;SDS011;11975;47.674;9.472;2023-06-10T14:00:16;17.73;;;16.73;;
23594;SDS011;11975;47.674;9.472;2023-06-10T14:02:42;16.67;;;15.77;;
23594;SDS011;11975;47.674;9.472;2023-06-10T14:05:08;18.10;;;17.10;;
23594;SDS011;11975;47.674;9.472;2023-06-10T14:07:34;19.30;;;18.20;;
23594;SDS011;11975;47.674;9.472;2023-06-10T14:10:01;18.85;;;17.80;;
23594;SDS011;11975;47.674;9.472;2023-06-10T14:12:26;19.70;;;18.60;;
23594;SDS011;11975;47.674;9.472;2023-06-10T14:14:52;20.00;;;18.90;;
23594;SDS011;11975;47.674;9.472;2023-06-10T14:17:18;19.43;;;18.33;;
23594;SDS011;11975;47.674;9.472;2023-06-10T14:19:44;19.43;;;18.33;;
23594;SDS011;11975;47.674;9.472;2023-06-10T14:22:10;19.10;;;18.02;;
23594;SDS011;11975;47.674;9.472;2023-06-10T14:24:36;18.40;;;17.40;;
23594;SDS011;11975;47.674;9.472;2023-06-10T14:27:03;18.58;;;17.55;;
23594;SDS011;11975;47.674;9.472;2023-06-10T14:29:29;19.20;;;18.15;;
23594;SDS011;11975;47.674;9.472;2023-06-10T14:31:56;18.88;;;17.85;;
23594;SDS011;11975;47.674;9.472;2023-06-10T14:34:22;18.70;;;17.70;;
23594;SDS011;11975;47.674;9.472;2023-06-10T14:36:54;17.85;;;16.85;;
23594;SDS011;11975;47.674;9.472;2023-06-10T14:39:20;17.25;;;16.25;;
23594;SDS011;11975;47.674;9.472;2023-06-10T14:41:46;17.30;;;16.30;;
23594;SDS011;11975;47.674;9.472;2023-06-10T14:44:12;19.40;;;18.30;;
23594;SDS011;11975;47.674;9.472;2023-06-10T14:46:38;18.00;;;17.00;;
23594;SDS011;11975;47.674;9.472;2023-06-10T14:49:04;17.60;;;16.63;;
23594;SDS011;11975;47.674;9.472;2023-06-10T14:51:30;18.15;;;17.15;;
23594;SDS011;11975;47.674;9.472;2023-06-10T14:53:56;18.65;;;17.65;;
23594;SDS011;11975;47.674;9.472;2023-06-10T14:56:23;19.25;;;18.15;;
23594;SDS011;11975;47.674;9.472;2023-06-10T14:58:51;18.42;;;17.42;;
23594;SDS011;11975;47.674;9.472;2023-06-10T15:01:17;19.15;;;18.08;;